sensor_id;sensor_type;location;lat;lon;timestamp;pressure;altitude;pressure_sealevel;temperature;humidity
29941;BME280;16801;53.562;10.038;2022-07-19T05:46:28;101923.19;;;22.12;60.82
29941;BME280;16801;53.562;10.038;2022-07-19T05:49:50;101922.88;;;21.62;61.96
29941;BME280;16801;53.562;10.038;2022-07-19T05:53:11;101927.88;;;21.59;61.48
29941;BME280;16801;53.562;10.038;2022-07-19T05:56:32;101920.00;;;21.56;60.58
29941;BME280;16801;53.562;10.038;2022-07-19T05:59:53;101923.09;;;21.83;60.74
29941;BME280;16801;53.562;10.038;2022-07-19T06:03:15;101921.59;;;21.73;58.93
29941;BME280;16801;53.562;10.038;2022-07-19T06:06:36;101921.81;;;21.94;59.54
29941;BME280;16801;53.562;10.038;2022-07-19T06:09:57;101915.59;;;22.14;59.35
29941;BME280;16801;53.562;10.038;2022-07-19T06:13:19;101924.50;;;22.16;59.00
29941;BME280;16801;53.562;10.038;2022-07-19T06:16:39;101929.81;;;22.18;58.84
29941;BME280;16801;53.562;10.038;2022-07-19T06:20:03;101925.13;;;22.56;58.81
29941;BME280;16801;53.562;10.038;2022-07-19T06:23:24;101922.16;;;22.65;57.89
29941;BME280;16801;53.562;10.038;2022-07-19T06:26:45;101932.75;;;22.83;57.30
29941;BME280;16801;53.562;10.038;2022-07-19T06:30:07;101927.56;;;22.88;57.16
29941;BME280;16801;53.562;10.038;2022-07-19T06:33:28;101932.97;;;22.81;56.73
29941;BME280;16801;53.562;10.038;2022-07-19T06:36:51;101937.38;;;23.12;56.21
29941;BME280;16801;53.562;10.038;2022-07-19T06:40:12;101939.97;;;23.13;55.05
29941;BME280;16801;53.562;10.038;2022-07-19T06:43:33;101945.56;;;23.05;54.76
29941;BME280;16801;53.562;10.038;2022-07-19T06:46:54;101942.13;;;23.03;53.10
29941;BME280;16801;53.562;10.038;2022-07-19T06:50:15;101931.78;;;23.20;54.49
29941;BME280;16801;53.562;10.038;2022-07-19T06:53:37;101934.41;;;23.42;53.12
29941;BME280;16801;53.562;10.038;2022-07-19T06:56:59;101937.53;;;23.75;53.92
29941;BME280;16801;53.562;10.038;2022-07-19T07:00:21;101938.47;;;23.82;52.67
29941;BME280;16801;53.562;10.038;2022-07-19T07:03:42;101935.66;;;24.03;52.74
29941;BME280;16801;53.562;10.038;2022-07-19T07:07:03;101938.78;;;24.15;51.69
29941;BME280;16801;53.562;10.038;2022-07-19T07:10:26;101941.16;;;24.03;50.61
29941;BME280;16801;53.562;10.038;2022-07-19T07:13:46;101940.72;;;24.00;50.31
29941;BME280;16801;53.562;10.038;2022-07-19T07:17:07;101936.81;;;24.09;50.17
29941;BME280;16801;53.562;10.038;2022-07-19T07:20:29;101936.53;;;24.25;49.88
29941;BME280;16801;53.562;10.038;2022-07-19T07:23:50;101940.81;;;24.27;49.71
29941;BME280;16801;53.562;10.038;2022-07-19T07:27:12;101938.97;;;24.41;49.85
29941;BME280;16801;53.562;10.038;2022-07-19T07:30:33;101947.53;;;24.74;51.42
29941;BME280;16801;53.562;10.038;2022-07-19T07:33:54;101948.50;;;24.94;50.58
29941;BME280;16801;53.562;10.038;2022-07-19T07:37:15;101943.41;;;24.91;48.95
29941;BME280;16801;53.562;10.038;2022-07-19T07:40:36;101948.94;;;24.97;48.83
29941;BME280;16801;53.562;10.038;2022-07-19T07:43:59;101943.13;;;25.26;48.96
29941;BME280;16801;53.562;10.038;2022-07-19T07:47:20;101943.13;;;25.20;47.89
29941;BME280;16801;53.562;10.038;2022-07-19T07:50:41;101941.22;;;25.27;47.81
29941;BME280;16801;53.562;10.038;2022-07-19T07:54:02;101934.59;;;25.15;47.25
29941;BME280;16801;53.562;10.038;2022-07-19T07:57:23;101934.41;;;25.23;47.56
29941;BME280;16801;53.562;10.038;2022-07-19T08:00:45;101935.38;;;25.50;47.52
29941;BME280;16801;53.562;10.038;2022-07-19T08:04:06;101929.91;;;25.63;47.45
29941;BME280;16801;53.562;10.038;2022-07-19T08:07:27;101929.72;;;25.84;47.37
29941;BME280;16801;53.562;10.038;2022-07-19T08:10:48;101918.06;;;25.88;46.73
29941;BME280;16801;53.562;10.038;2022-07-19T08:14:09;101922.31;;;25.91;46.51
29941;BME280;16801;53.562;10.038;2022-07-19T08:17:31;101916.38;;;26.07;46.94
29941;BME280;16801;53.562;10.038;2022-07-19T08:20:52;101919.16;;;26.13;46.62
29941;BME280;16801;53.562;10.038;2022-07-19T08:24:13;101924.25;;;26.10;46.21
29941;BME280;16801;53.562;10.038;2022-07-19T08:27:34;101915.09;;;26.36;46.09
29941;BME280;16801;53.562;10.038;2022-07-19T08:30:55;101906.16;;;26.40;45.68
29941;BME280;16801;53.562;10.038;2022-07-19T08:34:17;101906.16;;;26.53;44.26
29941;BME280;16801;53.562;10.038;2022-07-19T08:37:38;101894.41;;;26.58;43.59
29941;BME280;16801;53.562;10.038;2022-07-19T08:41:01;101891.00;;;26.69;43.89
29941;BME280;16801;53.562;10.038;2022-07-19T08:44:22;101882.44;;;26.90;44.27
29941;BME280;16801;53.562;10.038;2022-07-19T08:47:43;101889.56;;;27.17;43.55
29941;BME280;16801;53.562;10.038;2022-07-19T08:51:07;101883.50;;;27.40;43.48
29941;BME280;16801;53.562;10.038;2022-07-19T08:54:29;101886.28;;;27.40;43.94
29941;BME280;16801;53.562;10.038;2022-07-19T08:57:50;101886.31;;;27.64;44.03
29941;BME280;16801;53.562;10.038;2022-07-19T09:01:22;101879.25;;;27.68;42.30
29941;BME280;16801;53.562;10.038;2022-07-19T09:04:43;101872.25;;;27.66;42.23
29941;BME280;16801;53.562;10.038;2022-07-19T09:08:11;101877.56;;;27.67;41.80
29941;BME280;16801;53.562;10.038;2022-07-19T09:11:34;101872.38;;;27.78;40.96
29941;BME280;16801;53.562;10.038;2022-07-19T09:14:55;101868.03;;;27.88;41.33
29941;BME280;16801;53.562;10.038;2022-07-19T09:18:21;101878.22;;;27.94;41.17
29941;BME280;16801;53.562;10.038;2022-07-19T09:21:50;101883.75;;;27.94;41.26
29941;BME280;16801;53.562;10.038;2022-07-19T09:25:13;101881.34;;;28.04;40.77
29941;BME280;16801;53.562;10.038;2022-07-19T09:28:35;101876.53;;;27.93;38.55
29941;BME280;16801;53.562;10.038;2022-07-19T09:32:06;101877.34;;;28.00;39.99
29941;BME280;16801;53.562;10.038;2022-07-19T09:35:35;101874.97;;;28.28;40.33
29941;BME280;16801;53.562;10.038;2022-07-19T09:38:57;101873.72;;;28.24;38.88
29941;BME280;16801;53.562;10.038;2022-07-19T09:42:22;101869.06;;;28.43;38.11
29941;BME280;16801;53.562;10.038;2022-07-19T09:45:43;101871.56;;;28.69;39.14
29941;BME280;16801;53.562;10.038;2022-07-19T09:49:06;101874.25;;;28.94;37.63
29941;BME280;16801;53.562;10.038;2022-07-19T09:52:27;101872.47;;;28.81;37.74
29941;BME280;16801;53.562;10.038;2022-07-19T09:55:49;101879.75;;;28.82;37.81
29941;BME280;16801;53.562;10.038;2022-07-19T09:59:12;101873.56;;;28.80;38.65
29941;BME280;16801;53.562;10.038;2022-07-19T10:02:37;101878.44;;;28.85;39.27
29941;BME280;16801;53.562;10.038;2022-07-19T10:05:58;101872.28;;;28.83;39.88
29941;BME280;16801;53.562;10.038;2022-07-19T10:09:21;101873.16;;;29.13;39.61
29941;BME280;16801;53.562;10.038;2022-07-19T10:12:43;101867.91;;;29.05;39.00
29941;BME280;16801;53.562;10.038;2022-07-19T10:16:07;101868.84;;;29.17;38.66
29941;BME280;16801;53.562;10.038;2022-07-19T10:19:37;101867.63;;;29.43;37.93
29941;BME280;16801;53.562;10.038;2022-07-19T10:23:00;101860.06;;;29.50;37.19
29941;BME280;16801;53.562;10.038;2022-07-19T10:26:33;101854.00;;;29.53;38.09
29941;BME280;16801;53.562;10.038;2022-07-19T10:30:18;101853.66;;;29.79;37.46
29941;BME280;16801;53.562;10.038;2022-07-19T10:33:41;101840.03;;;29.71;36.24
29941;BME280;16801;53.562;10.038;2022-07-19T10:37:02;101846.97;;;29.80;36.13
29941;BME280;16801;53.562;10.038;2022-07-19T10:40:36;101841.19;;;30.05;35.52
29941;BME280;16801;53.562;10.038;2022-07-19T10:44:07;101834.03;;;29.74;34.97
29941;BME280;16801;53.562;10.038;2022-07-19T10:47:58;101830.13;;;30.39;35.33
29941;BME280;16801;53.562;10.038;2022-07-19T10:51:29;101846.75;;;29.93;32.41
29941;BME280;16801;53.562;10.038;2022-07-19T10:55:24;101840.00;;;30.24;34.02
29941;BME280;16801;53.562;10.038;2022-07-19T10:58:48;101832.75;;;30.23;33.31
29941;BME280;16801;53.562;10.038;2022-07-19T11:02:22;101842.06;;;30.40;32.18
29941;BME280;16801;53.562;10.038;2022-07-19T11:05:46;101825.72;;;30.55;31.88
29941;BME280;16801;53.562;10.038;2022-07-19T11:09:09;101816.81;;;30.93;32.21
29941;BME280;16801;53.562;10.038;2022-07-19T11:12:34;101823.09;;;31.28;31.61
29941;BME280;16801;53.562;10.038;2022-07-19T11:15:56;101824.00;;;31.33;30.35
29941;BME280;16801;53.562;10.038;2022-07-19T11:19:17;101818.63;;;31.72;28.09
29941;BME280;16801;53.562;10.038;2022-07-19T11:22:41;101812.97;;;31.38;30.89
29941;BME280;16801;53.562;10.038;2022-07-19T11:26:08;101812.69;;;30.84;29.40
29941;BME280;16801;53.562;10.038;2022-07-19T11:29:52;101816.66;;;30.99;29.07
29941;BME280;16801;53.562;10.038;2022-07-19T11:33:16;101815.56;;;31.28;28.35
29941;BME280;16801;53.562;10.038;2022-07-19T11:36:37;101813.19;;;31.82;29.77
29941;BME280;16801;53.562;10.038;2022-07-19T11:39:58;101816.03;;;31.37;29.51
29941;BME280;16801;53.562;10.038;2022-07-19T11:43:21;101816.16;;;31.75;30.97
29941;BME280;16801;53.562;10.038;2022-07-19T11:46:42;101802.19;;;31.92;30.05
29941;BME280;16801;53.562;10.038;2022-07-19T11:50:06;101808.50;;;31.37;30.45
29941;BME280;16801;53.562;10.038;2022-07-19T11:53:27;101803.22;;;31.52;30.60
29941;BME280;16801;53.562;10.038;2022-07-19T11:56:48;101806.47;;;31.94;32.83
29941;BME280;16801;53.562;10.038;2022-07-19T12:00:11;101797.28;;;31.94;30.32
29941;BME280;16801;53.562;10.038;2022-07-19T12:03:32;101801.94;;;32.26;30.43
29941;BME280;16801;53.562;10.038;2022-07-19T12:06:59;101805.28;;;32.83;30.58
29941;BME280;16801;53.562;10.038;2022-07-19T12:10:42;101797.63;;;33.22;29.62
29941;BME280;16801;53.562;10.038;2022-07-19T12:14:16;101799.22;;;32.91;29.44
29941;BME280;16801;53.562;10.038;2022-07-19T12:17:38;101793.66;;;33.45;28.58
29941;BME280;16801;53.562;10.038;2022-07-19T12:21:38;101791.19;;;33.80;29.71
29941;BME280;16801;53.562;10.038;2022-07-19T12:25:00;101779.59;;;33.98;29.87
29941;BME280;16801;53.562;10.038;2022-07-19T12:28:25;101784.84;;;34.26;28.06
29941;BME280;16801;53.562;10.038;2022-07-19T12:31:47;101786.91;;;32.92;28.78
29941;BME280;16801;53.562;10.038;2022-07-19T12:35:12;101783.53;;;33.39;28.49
29941;BME280;16801;53.562;10.038;2022-07-19T12:38:34;101775.03;;;33.55;27.32
29941;BME280;16801;53.562;10.038;2022-07-19T12:41:57;101773.63;;;33.53;28.18
29941;BME280;16801;53.562;10.038;2022-07-19T12:45:20;101777.88;;;34.34;29.19
29941;BME280;16801;53.562;10.038;2022-07-19T12:48:41;101778.97;;;34.80;28.85
29941;BME280;16801;53.562;10.038;2022-07-19T12:52:04;101768.44;;;35.22;27.91
29941;BME280;16801;53.562;10.038;2022-07-19T12:55:26;101776.44;;;34.88;27.36
29941;BME280;16801;53.562;10.038;2022-07-19T12:58:48;101766.53;;;35.68;28.19
29941;BME280;16801;53.562;10.038;2022-07-19T13:02:27;101767.06;;;36.10;26.88
29941;BME280;16801;53.562;10.038;2022-07-19T13:05:47;101769.66;;;36.80;25.45
29941;BME280;16801;53.562;10.038;2022-07-19T13:09:09;101763.56;;;38.89;23.94
29941;BME280;16801;53.562;10.038;2022-07-19T13:12:31;101756.59;;;40.21;21.09
29941;BME280;16801;53.562;10.038;2022-07-19T13:15:52;101750.31;;;40.37;21.31
29941;BME280;16801;53.562;10.038;2022-07-19T13:19:13;101749.38;;;42.85;19.97
29941;BME280;16801;53.562;10.038;2022-07-19T13:22:34;101750.88;;;43.86;18.99
29941;BME280;16801;53.562;10.038;2022-07-19T13:25:57;101749.75;;;43.70;18.65
29941;BME280;16801;53.562;10.038;2022-07-19T13:29:18;101742.53;;;42.86;19.48
29941;BME280;16801;53.562;10.038;2022-07-19T13:32:39;101742.56;;;43.29;18.11
29941;BME280;16801;53.562;10.038;2022-07-19T13:36:00;101736.59;;;44.49;18.36
29941;BME280;16801;53.562;10.038;2022-07-19T13:39:21;101746.94;;;42.45;17.95
29941;BME280;16801;53.562;10.038;2022-07-19T13:42:43;101730.38;;;41.55;19.10
29941;BME280;16801;53.562;10.038;2022-07-19T13:46:05;101731.22;;;42.08;19.50
29941;BME280;16801;53.562;10.038;2022-07-19T13:49:26;101724.38;;;40.49;19.75
29941;BME280;16801;53.562;10.038;2022-07-19T13:52:47;101718.31;;;39.82;19.57
29941;BME280;16801;53.562;10.038;2022-07-19T13:56:08;101723.81;;;40.74;20.18
29941;BME280;16801;53.562;10.038;2022-07-19T13:59:31;101725.63;;;41.06;20.60
29941;BME280;16801;53.562;10.038;2022-07-19T14:02:53;101716.16;;;41.24;20.74
29941;BME280;16801;53.562;10.038;2022-07-19T14:06:14;101708.00;;;37.33;22.30
29941;BME280;16801;53.562;10.038;2022-07-19T14:09:35;101706.22;;;37.47;23.04
29941;BME280;16801;53.562;10.038;2022-07-19T14:12:56;101690.00;;;38.62;23.02
29941;BME280;16801;53.562;10.038;2022-07-19T14:16:19;101695.97;;;38.61;22.69
29941;BME280;16801;53.562;10.038;2022-07-19T14:19:40;101694.25;;;38.17;22.00
29941;BME280;16801;53.562;10.038;2022-07-19T14:23:01;101697.69;;;37.23;22.19
29941;BME280;16801;53.562;10.038;2022-07-19T14:26:22;101688.38;;;37.28;23.40
29941;BME280;16801;53.562;10.038;2022-07-19T14:29:43;101685.25;;;36.91;22.30
29941;BME280;16801;53.562;10.038;2022-07-19T14:33:05;101691.38;;;36.49;23.54
29941;BME280;16801;53.562;10.038;2022-07-19T14:36:26;101684.63;;;36.50;23.55
29941;BME280;16801;53.562;10.038;2022-07-19T14:39:46;101677.94;;;36.84;23.79
29941;BME280;16801;53.562;10.038;2022-07-19T14:43:07;101677.34;;;37.36;23.03
29941;BME280;16801;53.562;10.038;2022-07-19T14:46:28;101675.91;;;37.68;23.63
29941;BME280;16801;53.562;10.038;2022-07-19T14:49:50;101680.34;;;37.74;23.85
29941;BME280;16801;53.562;10.038;2022-07-19T14:53:12;101663.22;;;37.41;21.90
29941;BME280;16801;53.562;10.038;2022-07-19T14:56:33;101665.13;;;37.75;23.12
29941;BME280;16801;53.562;10.038;2022-07-19T14:59:53;101664.13;;;36.49;22.76
29941;BME280;16801;53.562;10.038;2022-07-19T15:03:14;101656.00;;;36.43;23.27
29941;BME280;16801;53.562;10.038;2022-07-19T15:06:37;101650.75;;;37.14;24.06
29941;BME280;16801;53.562;10.038;2022-07-19T15:09:58;101661.72;;;37.78;24.70
29941;BME280;16801;53.562;10.038;2022-07-19T15:13:19;101652.28;;;37.63;23.91
29941;BME280;16801;53.562;10.038;2022-07-19T15:16:40;101639.75;;;36.30;22.97
29941;BME280;16801;53.562;10.038;2022-07-19T15:20:01;101638.88;;;36.83;24.32
29941;BME280;16801;53.562;10.038;2022-07-19T15:23:24;101638.84;;;37.27;23.92
29941;BME280;16801;53.562;10.038;2022-07-19T15:26:45;101639.88;;;37.64;22.57
29941;BME280;16801;53.562;10.038;2022-07-19T15:30:07;101640.22;;;37.87;23.87
29941;BME280;16801;53.562;10.038;2022-07-19T15:33:27;101643.13;;;37.77;22.38
29941;BME280;16801;53.562;10.038;2022-07-19T15:36:48;101641.72;;;37.79;22.80
29941;BME280;16801;53.562;10.038;2022-07-19T15:40:11;101631.09;;;37.71;22.80
29941;BME280;16801;53.562;10.038;2022-07-19T15:43:32;101624.56;;;37.76;23.76
29941;BME280;16801;53.562;10.038;2022-07-19T15:46:53;101623.41;;;37.77;23.72
29941;BME280;16801;53.562;10.038;2022-07-19T15:50:15;101622.47;;;37.62;23.67
29941;BME280;16801;53.562;10.038;2022-07-19T15:53:37;101614.44;;;37.51;23.11
29941;BME280;16801;53.562;10.038;2022-07-19T15:57:00;101616.97;;;37.47;22.91
29941;BME280;16801;53.562;10.038;2022-07-19T16:00:21;101617.94;;;37.38;22.97
29941;BME280;16801;53.562;10.038;2022-07-19T16:03:43;101612.19;;;37.19;23.08
29941;BME280;16801;53.562;10.038;2022-07-19T16:07:03;101609.22;;;37.34;23.86
29941;BME280;16801;53.562;10.038;2022-07-19T16:10:24;101606.91;;;37.41;23.74
29941;BME280;16801;53.562;10.038;2022-07-19T16:13:47;101607.03;;;37.26;23.54
29941;BME280;16801;53.562;10.038;2022-07-19T16:17:08;101606.00;;;37.17;24.19
29941;BME280;16801;53.562;10.038;2022-07-19T16:20:29;101599.88;;;37.10;24.14
29941;BME280;16801;53.562;10.038;2022-07-19T16:23:51;101597.69;;;37.02;24.63
29941;BME280;16801;53.562;10.038;2022-07-19T16:27:12;101592.06;;;37.02;23.82
29941;BME280;16801;53.562;10.038;2022-07-19T16:30:34;101593.84;;;36.93;24.38
29941;BME280;16801;53.562;10.038;2022-07-19T16:33:56;101589.13;;;36.78;23.98
29941;BME280;16801;53.562;10.038;2022-07-19T16:37:17;101584.53;;;36.59;23.55
29941;BME280;16801;53.562;10.038;2022-07-19T16:40:38;101580.78;;;36.68;24.14
29941;BME280;16801;53.562;10.038;2022-07-19T16:43:59;101578.38;;;36.57;23.92
29941;BME280;16801;53.562;10.038;2022-07-19T16:47:22;101578.13;;;36.48;23.91
29941;BME280;16801;53.562;10.038;2022-07-19T16:50:43;101578.44;;;36.37;23.97
29941;BME280;16801;53.562;10.038;2022-07-19T16:54:04;101576.06;;;36.10;22.97
29941;BME280;16801;53.562;10.038;2022-07-19T16:57:25;101572.00;;;35.77;24.26
29941;BME280;16801;53.562;10.038;2022-07-19T17:00:46;101565.53;;;35.72;24.33
29941;BME280;16801;53.562;10.038;2022-07-19T17:04:09;101564.19;;;35.59;23.81
29941;BME280;16801;53.562;10.038;2022-07-19T17:07:29;101574.25;;;35.75;24.71
29941;BME280;16801;53.562;10.038;2022-07-19T17:10:50;101568.38;;;35.62;23.72
29941;BME280;16801;53.562;10.038;2022-07-19T17:14:11;101558.91;;;35.48;23.85
29941;BME280;16801;53.562;10.038;2022-07-19T17:17:32;101565.63;;;35.47;24.38
29941;BME280;16801;53.562;10.038;2022-07-19T17:20:55;101562.22;;;35.45;23.31
29941;BME280;16801;53.562;10.038;2022-07-19T17:24:15;101552.44;;;35.37;24.19
29941;BME280;16801;53.562;10.038;2022-07-19T17:27:37;101550.50;;;35.27;23.38
29941;BME280;16801;53.562;10.038;2022-07-19T17:30:58;101553.06;;;35.09;24.11
29941;BME280;16801;53.562;10.038;2022-07-19T17:34:19;101549.66;;;34.72;23.84
29941;BME280;16801;53.562;10.038;2022-07-19T17:37:41;101550.22;;;34.53;24.34
29941;BME280;16801;53.562;10.038;2022-07-19T17:41:02;101560.81;;;34.31;24.80
29941;BME280;16801;53.562;10.038;2022-07-19T17:44:23;101551.22;;;34.17;24.95
29941;BME280;16801;53.562;10.038;2022-07-19T17:47:44;101551.50;;;34.06;25.36
29941;BME280;16801;53.562;10.038;2022-07-19T17:51:06;101546.63;;;33.86;25.87
29941;BME280;16801;53.562;10.038;2022-07-19T17:54:28;101549.41;;;33.81;25.89
29941;BME280;16801;53.562;10.038;2022-07-19T17:57:49;101541.22;;;33.69;26.26
29941;BME280;16801;53.562;10.038;2022-07-19T18:01:11;101556.00;;;33.55;27.47
29941;BME280;16801;53.562;10.038;2022-07-19T18:04:31;101556.72;;;33.40;27.88
29941;BME280;16801;53.562;10.038;2022-07-19T18:07:53;101547.50;;;33.40;28.52
29941;BME280;16801;53.562;10.038;2022-07-19T18:11:16;101552.72;;;33.21;28.32
29941;BME280;16801;53.562;10.038;2022-07-19T18:14:37;101553.19;;;33.13;28.90
29941;BME280;16801;53.562;10.038;2022-07-19T18:17:58;101551.97;;;32.99;29.72
29941;BME280;16801;53.562;10.038;2022-07-19T18:21:19;101544.16;;;33.01;29.85
29941;BME280;16801;53.562;10.038;2022-07-19T18:24:40;101547.34;;;32.83;29.87
29941;BME280;16801;53.562;10.038;2022-07-19T18:28:03;101556.53;;;32.78;30.79
29941;BME280;16801;53.562;10.038;2022-07-19T18:31:24;101546.91;;;32.64;30.96
29941;BME280;16801;53.562;10.038;2022-07-19T18:34:44;101545.19;;;32.37;30.56
29941;BME280;16801;53.562;10.038;2022-07-19T18:38:06;101549.13;;;32.36;30.49
29941;BME280;16801;53.562;10.038;2022-07-19T18:41:27;101543.59;;;32.19;30.62
29941;BME280;16801;53.562;10.038;2022-07-19T18:44:49;101542.63;;;32.03;31.28
29941;BME280;16801;53.562;10.038;2022-07-19T18:48:10;101550.41;;;32.01;32.00
29941;BME280;16801;53.562;10.038;2022-07-19T18:51:47;101546.22;;;31.82;32.01
29941;BME280;16801;53.562;10.038;2022-07-19T18:55:08;101551.88;;;31.66;33.59
29941;BME280;16801;53.562;10.038;2022-07-19T18:58:29;101549.13;;;31.49;33.66
29941;BME280;16801;53.562;10.038;2022-07-19T19:01:52;101555.47;;;31.44;34.80
29941;BME280;16801;53.562;10.038;2022-07-19T19:05:13;101559.63;;;31.25;34.85
29941;BME280;16801;53.562;10.038;2022-07-19T19:08:34;101567.06;;;31.20;36.14
29941;BME280;16801;53.562;10.038;2022-07-19T19:11:55;101567.41;;;31.07;35.92
29941;BME280;16801;53.562;10.038;2022-07-19T19:15:16;101560.34;;;30.99;36.11
29941;BME280;16801;53.562;10.038;2022-07-19T19:18:39;101565.63;;;30.84;36.80
29941;BME280;16801;53.562;10.038;2022-07-19T19:22:00;101564.34;;;30.75;36.13
29941;BME280;16801;53.562;10.038;2022-07-19T19:25:21;101571.28;;;30.56;36.84
29941;BME280;16801;53.562;10.038;2022-07-19T19:28:43;101572.34;;;30.55;36.97
29941;BME280;16801;53.562;10.038;2022-07-19T19:32:04;101569.81;;;30.37;37.22
29941;BME280;16801;53.562;10.038;2022-07-19T19:35:27;101569.69;;;30.32;37.19
29941;BME280;16801;53.562;10.038;2022-07-19T19:38:49;101575.50;;;30.30;37.13
29941;BME280;16801;53.562;10.038;2022-07-19T19:42:10;101569.66;;;30.04;37.70
29941;BME280;16801;53.562;10.038;2022-07-19T19:45:31;101574.84;;;30.00;37.67
29941;BME280;16801;53.562;10.038;2022-07-19T19:48:52;101578.16;;;29.85;37.57
29941;BME280;16801;53.562;10.038;2022-07-19T19:52:15;101570.72;;;29.74;37.46
29941;BME280;16801;53.562;10.038;2022-07-19T19:55:36;101573.25;;;29.64;37.38
29941;BME280;16801;53.562;10.038;2022-07-19T19:58:57;101575.91;;;29.59;37.38
29941;BME280;16801;53.562;10.038;2022-07-19T20:02:18;101570.84;;;29.45;37.49
29941;BME280;16801;53.562;10.038;2022-07-19T20:05:39;101575.81;;;29.31;37.56
29941;BME280;16801;53.562;10.038;2022-07-19T20:09:02;101582.59;;;29.23;37.35
29941;BME280;16801;53.562;10.038;2022-07-19T20:12:24;101593.56;;;29.18;37.28
29941;BME280;16801;53.562;10.038;2022-07-19T20:15:45;101592.81;;;29.11;37.13
29941;BME280;16801;53.562;10.038;2022-07-19T20:19:06;101591.47;;;29.02;37.43
29941;BME280;16801;53.562;10.038;2022-07-19T20:22:28;101589.06;;;28.94;37.91
29941;BME280;16801;53.562;10.038;2022-07-19T20:25:51;101593.66;;;28.89;37.20
29941;BME280;16801;53.562;10.038;2022-07-19T20:29:12;101596.03;;;28.74;37.81
29941;BME280;16801;53.562;10.038;2022-07-19T20:32:33;101603.66;;;28.78;37.92
29941;BME280;16801;53.562;10.038;2022-07-19T20:35:54;101596.88;;;28.74;37.56
29941;BME280;16801;53.562;10.038;2022-07-19T20:39:15;101600.72;;;28.62;37.79
29941;BME280;16801;53.562;10.038;2022-07-19T20:42:37;101593.84;;;28.46;37.82
29941;BME280;16801;53.562;10.038;2022-07-19T20:45:58;101592.03;;;28.40;38.48
29941;BME280;16801;53.562;10.038;2022-07-19T20:49:19;101592.03;;;28.40;38.12
29941;BME280;16801;53.562;10.038;2022-07-19T20:52:41;101594.38;;;28.25;39.01
29941;BME280;16801;53.562;10.038;2022-07-19T20:56:02;101584.53;;;28.11;38.79
29941;BME280;16801;53.562;10.038;2022-07-19T20:59:24;101597.75;;;27.97;38.76
29941;BME280;16801;53.562;10.038;2022-07-19T21:02:45;101602.50;;;28.08;38.71
29941;BME280;16801;53.562;10.038;2022-07-19T21:06:07;101603.72;;;27.94;39.65
29941;BME280;16801;53.562;10.038;2022-07-19T21:09:28;101606.19;;;28.02;38.98
29941;BME280;16801;53.562;10.038;2022-07-19T21:12:49;101605.88;;;27.92;39.71
29941;BME280;16801;53.562;10.038;2022-07-19T21:16:11;101596.50;;;27.93;39.19
29941;BME280;16801;53.562;10.038;2022-07-19T21:19:32;101600.34;;;27.92;39.93
29941;BME280;16801;53.562;10.038;2022-07-19T21:22:53;101599.00;;;27.77;40.11
29941;BME280;16801;53.562;10.038;2022-07-19T21:26:14;101602.66;;;27.77;40.14
29941;BME280;16801;53.562;10.038;2022-07-19T21:29:35;101604.81;;;27.75;40.73
29941;BME280;16801;53.562;10.038;2022-07-19T21:32:58;101601.66;;;27.72;40.85
29941;BME280;16801;53.562;10.038;2022-07-19T21:36:19;101598.03;;;27.71;40.67
29941;BME280;16801;53.562;10.038;2022-07-19T21:39:40;101604.25;;;27.48;40.59
29941;BME280;16801;53.562;10.038;2022-07-19T21:43:02;101598.88;;;27.53;41.24
29941;BME280;16801;53.562;10.038;2022-07-19T21:46:23;101603.81;;;27.51;41.41
29941;BME280;16801;53.562;10.038;2022-07-19T21:49:47;101605.63;;;27.39;41.27
29941;BME280;16801;53.562;10.038;2022-07-19T21:53:08;101605.84;;;27.38;41.72
29941;BME280;16801;53.562;10.038;2022-07-19T21:56:29;101609.75;;;27.30;41.59
29941;BME280;16801;53.562;10.038;2022-07-19T21:59:49;101607.28;;;27.22;41.50
29941;BME280;16801;53.562;10.038;2022-07-19T22:03:10;101609.47;;;27.14;41.90
29941;BME280;16801;53.562;10.038;2022-07-19T22:06:33;101606.75;;;27.07;41.56
29941;BME280;16801;53.562;10.038;2022-07-19T22:09:54;101604.38;;;27.11;41.57
29941;BME280;16801;53.562;10.038;2022-07-19T22:13:15;101610.31;;;27.14;42.20
29941;BME280;16801;53.562;10.038;2022-07-19T22:16:36;101608.06;;;27.05;42.18
29941;BME280;16801;53.562;10.038;2022-07-19T22:19:57;101605.09;;;27.00;42.20
29941;BME280;16801;53.562;10.038;2022-07-19T22:23:20;101604.34;;;26.92;42.57
29941;BME280;16801;53.562;10.038;2022-07-19T22:26:42;101601.16;;;26.89;42.78
29941;BME280;16801;53.562;10.038;2022-07-19T22:30:04;101603.47;;;26.92;42.40
29941;BME280;16801;53.562;10.038;2022-07-19T22:33:27;101598.22;;;26.84;42.56
29941;BME280;16801;53.562;10.038;2022-07-19T22:36:48;101598.50;;;26.76;42.75
29941;BME280;16801;53.562;10.038;2022-07-19T22:40:11;101604.66;;;26.78;42.63
29941;BME280;16801;53.562;10.038;2022-07-19T22:43:33;101612.34;;;26.69;42.88
29941;BME280;16801;53.562;10.038;2022-07-19T22:46:54;101602.38;;;26.62;43.09
29941;BME280;16801;53.562;10.038;2022-07-19T22:50:15;101614.13;;;26.64;43.07
29941;BME280;16801;53.562;10.038;2022-07-19T22:53:36;101619.00;;;26.62;42.85
29941;BME280;16801;53.562;10.038;2022-07-19T22:56:58;101613.22;;;26.39;44.20
29941;BME280;16801;53.562;10.038;2022-07-19T23:00:19;101615.88;;;26.52;43.68
29941;BME280;16801;53.562;10.038;2022-07-19T23:03:39;101612.50;;;26.43;44.49
29941;BME280;16801;53.562;10.038;2022-07-19T23:07:00;101612.81;;;26.29;44.53
29941;BME280;16801;53.562;10.038;2022-07-19T23:10:21;101614.13;;;26.26;44.40